Time;durP1;ratioP1;P1;durP2;ratioP2;P2;SDS_P1;SDS_P2;PMS_P1;PMS_P2;Temp;Humidity;BMP_temperature;BMP_pressure;BME280_temperature;BME280_humidity;BME280_pressure;Samples;Min_cycle;Max_cycle;Signal;HPM_P1;HPM_P2
2023/03/10 00:00:30;;;;;;;18.25;10.43;;;;;;;7.02;89.62;98666.38;5075217;28;20175;-89
2023/03/10 00:02:59;;;;;;;15.07;9.43;;;;;;;7.01;89.50;98670.78;5093240;28;20020;-89
2023/03/10 00:05:24;;;;;;;18.50;11.43;;;;;;;6.99;89.17;98677.06;5093501;28;20171;-88
2023/03/10 00:07:49;;;;;;;14.10;8.82;;;;;;;6.97;89.19;98671.06;5093128;28;20031;-88
2023/03/10 00:10:15;;;;;;;16.33;9.88;;;;;;;7.02;89.24;98674.25;5093366;28;20454;-88
2023/03/10 00:12:40;;;;;;;16.10;9.85;;;;;;;7.08;89.16;98679.13;5079334;28;20028;-88
2023/03/10 00:15:07;;;;;;;16.92;10.20;;;;;;;7.08;89.12;98674.72;5093402;28;20150;-88
2023/03/10 00:17:32;;;;;;;15.73;10.23;;;;;;;7.05;88.85;98674.91;5091393;28;20062;-88
2023/03/10 00:19:57;;;;;;;14.02;9.70;;;;;;;7.12;88.82;98680.63;5093247;28;20062;-88
2023/03/10 00:22:23;;;;;;;17.00;9.93;;;;;;;7.13;88.71;98683.19;5092696;28;20035;-88
2023/03/10 00:24:48;;;;;;;14.52;9.70;;;;;;;7.13;88.90;98679.69;5074852;28;20516;-88
2023/03/10 00:27:13;;;;;;;17.73;10.43;;;;;;;7.12;88.89;98673.59;5074607;28;20035;-88
2023/03/10 00:29:39;;;;;;;15.88;9.85;;;;;;;7.06;88.19;98667.88;5063900;28;20463;-88
2023/03/10 00:32:05;;;;;;;16.00;9.43;;;;;;;7.04;89.11;98662.72;5071843;28;20174;-88
2023/03/10 00:34:30;;;;;;;13.82;9.40;;;;;;;7.08;88.82;98666.00;5092915;28;20027;-88
2023/03/10 00:36:55;;;;;;;14.30;9.55;;;;;;;7.00;88.95;98649.88;5092901;28;20095;-88
2023/03/10 00:39:21;;;;;;;12.48;8.40;;;;;;;7.00;88.68;98660.38;5074938;28;20020;-88
2023/03/10 00:41:47;;;;;;;13.25;8.82;;;;;;;6.95;89.09;98665.91;5074193;28;20032;-87
2023/03/10 00:44:13;;;;;;;16.02;10.15;;;;;;;6.93;88.97;98678.28;5074449;28;20452;-87
2023/03/10 00:46:39;;;;;;;16.88;9.30;;;;;;;6.89;89.09;98677.59;5092039;28;20016;-87
2023/03/10 00:49:06;;;;;;;13.50;8.90;;;;;;;6.91;89.11;98672.28;5092164;28;20024;-87
2023/03/10 00:51:31;;;;;;;12.70;8.75;;;;;;;6.90;89.05;98663.56;5092111;28;20030;-87
2023/03/10 00:53:59;;;;;;;13.68;9.60;;;;;;;7.04;89.27;98682.88;5074335;28;20098;-88
2023/03/10 00:56:25;;;;;;;14.23;9.40;;;;;;;7.09;89.00;98679.06;5074208;28;20048;-88
2023/03/10 00:58:53;;;;;;;16.05;8.90;;;;;;;7.08;89.06;98674.72;5065745;28;20025;-88
2023/03/10 01:01:27;;;;;;;16.27;9.40;;;;;;;7.16;89.14;98684.75;5090192;28;20024;-88
2023/03/10 01:03:55;;;;;;;15.10;9.38;;;;;;;7.20;89.05;98685.44;5092120;28;20028;-88
2023/03/10 01:06:20;;;;;;;16.35;9.25;;;;;;;7.18;89.16;98685.53;5092313;28;20016;-88
2023/03/10 01:08:46;;;;;;;16.10;9.43;;;;;;;7.17;89.18;98673.31;5089652;28;20085;-88
2023/03/10 01:11:16;;;;;;;16.95;10.40;;;;;;;7.22;89.02;98688.78;5073969;28;20107;-87
2023/03/10 01:13:42;;;;;;;16.98;11.30;;;;;;;7.21;89.33;98680.06;5092188;28;20251;-88
2023/03/10 01:16:07;;;;;;;19.42;10.95;;;;;;;7.24;89.52;98673.81;5092049;28;20135;-88
2023/03/10 01:18:33;;;;;;;16.15;9.98;;;;;;;7.27;89.40;98655.19;5078752;28;20074;-88
2023/03/10 01:20:58;;;;;;;17.98;10.23;;;;;;;7.23;89.53;98648.44;5073790;28;20040;-88
2023/03/10 01:23:24;;;;;;;17.95;10.73;;;;;;;7.33;89.77;98662.72;5070980;28;20476;-88
2023/03/10 01:25:50;;;;;;;16.95;9.10;;;;;;;7.34;89.90;98646.84;5082030;28;20149;-88
2023/03/10 01:28:16;;;;;;;15.27;9.43;;;;;;;7.47;90.72;98653.97;5082648;28;20488;-88
2023/03/10 01:30:42;;;;;;;13.38;7.13;;;;;;;7.63;91.69;98659.94;5091623;28;20032;-89
2023/03/10 01:33:08;;;;;;;17.25;9.15;;;;;;;7.74;92.09;98639.09;5073317;28;20484;-88
2023/03/10 01:35:34;;;;;;;14.88;8.43;;;;;;;7.96;93.31;98633.28;5073554;28;20482;-88
2023/03/10 01:37:59;;;;;;;11.93;7.22;;;;;;;8.28;93.42;98638.22;5073475;28;20024;-88
2023/03/10 01:40:25;;;;;;;13.63;7.50;;;;;;;8.77;92.63;98629.72;5073465;28;20093;-88
2023/03/10 01:43:11;;;;;;;14.80;8.43;;;;;;;8.70;92.65;98621.38;5079245;28;20081;-88
2023/03/10 01:45:36;;;;;;;17.42;8.07;;;;;;;8.83;93.51;98642.47;5049919;28;20048;-89
2023/03/10 01:48:01;;;;;;;14.63;7.63;;;;;;;8.83;93.12;98627.50;5069845;28;20024;-88
2023/03/10 01:50:27;;;;;;;13.68;8.27;;;;;;;8.92;92.74;98640.03;5062955;28;20281;-89
2023/03/10 01:52:57;;;;;;;16.85;7.70;;;;;;;9.04;93.18;98635.69;5091388;28;20032;-89
2023/03/10 01:55:28;;;;;;;15.60;9.07;;;;;;;9.10;93.45;98635.28;5091208;28;20071;-89
2023/03/10 01:57:55;;;;;;;19.65;7.88;;;;;;;9.19;93.10;98623.28;5068859;28;20443;-89
2023/03/10 02:00:23;;;;;;;12.27;7.45;;;;;;;9.15;92.72;98605.97;5073231;28;20424;-88
2023/03/10 02:02:51;;;;;;;15.02;8.60;;;;;;;9.24;92.64;98618.53;5059632;28;20468;-88
2023/03/10 02:05:17;;;;;;;11.23;7.25;;;;;;;9.23;92.67;98616.81;5091597;28;20024;-89
2023/03/10 02:07:43;;;;;;;17.85;7.30;;;;;;;9.25;92.63;98611.44;5067967;28;20468;-88
2023/03/10 02:10:12;;;;;;;12.35;7.70;;;;;;;9.28;92.52;98620.00;5082690;28;20024;-88
2023/03/10 02:12:37;;;;;;;12.63;7.00;;;;;;;9.35;92.18;98625.66;5077123;28;20107;-89
2023/03/10 02:15:03;;;;;;;12.98;7.20;;;;;;;9.42;92.30;98613.75;5091423;28;20095;-89
2023/03/10 02:17:29;;;;;;;12.48;6.78;;;;;;;9.46;92.13;98620.47;5088755;28;20028;-89
2023/03/10 02:20:13;;;;;;;15.43;7.82;;;;;;;9.55;93.03;98625.06;5087765;28;20027;-89
2023/03/10 02:22:39;;;;;;;15.00;7.90;;;;;;;9.58;93.07;98616.97;5072637;28;20019;-89
2023/03/10 02:25:19;;;;;;;12.75;7.43;;;;;;;9.65;92.71;98618.22;5090802;28;20537;-88
2023/03/10 02:27:44;;;;;;;11.27;6.68;;;;;;;9.66;92.50;98596.16;5086356;28;20202;-89
2023/03/10 02:30:31;;;;;;;11.18;7.28;;;;;;;9.74;91.78;98594.75;5083691;28;20019;-89
2023/03/10 02:33:01;;;;;;;11.85;7.30;;;;;;;9.67;91.71;98595.19;5090652;28;20046;-89
2023/03/10 02:35:27;;;;;;;12.23;6.32;;;;;;;9.57;91.17;98586.25;5072883;28;20028;-89
2023/03/10 02:37:52;;;;;;;8.85;5.82;;;;;;;9.85;89.80;98581.63;5085739;28;20430;-89
2023/03/10 02:40:36;;;;;;;12.82;5.90;;;;;;;9.54;91.13;98591.75;5086899;28;20034;-89
2023/03/10 02:43:12;;;;;;;10.85;6.03;;;;;;;9.48;91.16;98579.00;5090530;28;20016;-89
2023/03/10 02:45:40;;;;;;;11.02;6.40;;;;;;;9.53;91.59;98582.16;5090810;28;20028;-90
2023/03/10 02:48:07;;;;;;;10.40;6.55;;;;;;;9.56;92.34;98587.22;5065871;28;20024;-90
2023/03/10 02:50:36;;;;;;;13.73;6.32;;;;;;;9.51;91.73;98573.50;5059209;28;20377;-89
2023/03/10 02:53:10;;;;;;;12.18;7.07;;;;;;;9.55;92.46;98579.41;5072408;28;20031;-89
2023/03/10 02:55:35;;;;;;;10.90;6.50;;;;;;;9.48;92.19;98557.91;5091111;28;20075;-89
2023/03/10 02:58:01;;;;;;;13.07;6.18;;;;;;;9.61;92.92;98574.53;5070999;28;20110;-89
2023/03/10 03:00:27;;;;;;;9.40;6.30;;;;;;;9.61;92.37;98569.25;5090701;28;20024;-89
2023/03/10 03:02:53;;;;;;;13.23;7.18;;;;;;;9.57;93.07;98562.53;5072129;28;20020;-89
2023/03/10 03:05:18;;;;;;;14.13;7.30;;;;;;;9.56;92.85;98555.56;5064373;28;20036;-89
2023/03/10 03:07:44;;;;;;;12.05;6.15;;;;;;;9.52;91.90;98553.25;5066837;28;20032;-89
2023/03/10 03:10:10;;;;;;;12.82;6.95;;;;;;;9.45;92.34;98551.03;5072998;28;20031;-89
2023/03/10 03:12:35;;;;;;;13.10;6.10;;;;;;;9.36;92.26;98540.31;5075887;28;20055;-89
2023/03/10 03:15:00;;;;;;;9.32;5.53;;;;;;;9.36;91.96;98548.22;5094472;28;20101;-89
2023/03/10 03:17:27;;;;;;;12.10;6.55;;;;;;;9.30;92.81;98544.25;5094145;28;20063;-89
2023/03/10 03:19:52;;;;;;;8.77;5.30;;;;;;;9.35;92.81;98547.41;5090985;28;20016;-89
2023/03/10 03:22:18;;;;;;;9.90;5.57;;;;;;;9.32;92.36;98541.50;5093799;28;20110;-88
2023/03/10 03:24:43;;;;;;;9.25;5.53;;;;;;;9.35;93.16;98542.13;5072673;28;20070;-89
2023/03/10 03:27:08;;;;;;;11.70;6.10;;;;;;;9.42;93.30;98542.53;5088440;28;20032;-89
2023/03/10 03:29:33;;;;;;;13.15;6.18;;;;;;;9.47;93.23;98545.69;5084022;28;20417;-89
2023/03/10 03:31:59;;;;;;;10.57;6.25;;;;;;;9.53;92.49;98554.94;5093505;28;20024;-88
2023/03/10 03:34:25;;;;;;;9.25;5.68;;;;;;;9.50;92.27;98549.88;5094312;28;20020;-88
2023/03/10 03:36:50;;;;;;;13.35;5.45;;;;;;;9.52;92.72;98538.28;5094059;28;20055;-89
2023/03/10 03:39:16;;;;;;;7.43;4.55;;;;;;;9.50;92.75;98540.16;5087374;28;20024;-89
2023/03/10 03:41:42;;;;;;;10.65;5.63;;;;;;;9.55;93.02;98543.31;5068699;28;20023;-89
2023/03/10 03:44:08;;;;;;;11.07;4.90;;;;;;;9.66;93.04;98550.47;5093731;28;20031;-89
2023/03/10 03:46:33;;;;;;;8.95;4.35;;;;;;;9.67;92.79;98538.94;5094044;28;20028;-89
2023/03/10 03:48:58;;;;;;;10.77;4.90;;;;;;;9.71;92.61;98541.25;5069969;28;20118;-89
2023/03/10 03:51:24;;;;;;;13.13;4.70;;;;;;;9.79;92.92;98553.88;5093724;28;20468;-89
2023/03/10 03:53:49;;;;;;;8.65;4.43;;;;;;;9.81;92.37;98549.31;5093724;28;20024;-89
2023/03/10 03:56:14;;;;;;;7.78;4.00;;;;;;;9.81;92.23;98545.84;5075426;28;20503;-89
2023/03/10 03:58:40;;;;;;;8.65;3.35;;;;;;;9.81;92.72;98546.69;5090878;28;20024;-88
2023/03/10 04:01:05;;;;;;;6.07;3.50;;;;;;;9.86;92.43;98541.06;5088377;28;20016;-89
2023/03/10 04:03:30;;;;;;;7.50;3.80;;;;;;;9.80;92.75;98536.25;5073473;28;20028;-90
2023/03/10 04:05:55;;;;;;;6.40;3.80;;;;;;;9.83;92.95;98528.94;5075519;28;20082;-90
2023/03/10 04:08:21;;;;;;;6.82;3.20;;;;;;;9.84;92.40;98528.00;5093197;28;20113;-90
2023/03/10 04:10:53;;;;;;;7.20;3.33;;;;;;;9.87;93.01;98532.19;5093476;28;20026;-89
2023/03/10 04:13:19;;;;;;;7.22;3.85;;;;;;;9.91;93.47;98538.94;5093080;28;20501;-90
2023/03/10 04:15:44;;;;;;;10.25;4.60;;;;;;;9.92;93.52;98533.53;5093474;28;20097;-89
2023/03/10 04:18:10;;;;;;;8.77;3.25;;;;;;;9.94;92.75;98520.25;5091121;28;20026;-90
2023/03/10 04:20:36;;;;;;;9.27;3.47;;;;;;;9.93;92.42;98523.81;5093220;28;20020;-89
2023/03/10 04:23:03;;;;;;;9.50;3.25;;;;;;;9.92;92.04;98520.34;5073264;28;20027;-89
2023/03/10 04:25:29;;;;;;;10.68;3.67;;;;;;;9.88;92.82;98523.31;5093044;28;20077;-89
2023/03/10 04:27:56;;;;;;;8.32;2.83;;;;;;;9.93;92.22;98521.16;5092766;28;20024;-89
2023/03/10 04:30:27;;;;;;;6.60;3.13;;;;;;;9.88;92.10;98518.88;5058330;28;20039;-89
2023/03/10 04:32:56;;;;;;;8.85;2.78;;;;;;;9.92;91.88;98528.25;5092709;28;20042;-88
2023/03/10 04:35:21;;;;;;;10.60;3.25;;;;;;;9.87;91.46;98525.13;5074875;28;20028;-88
2023/03/10 04:37:47;;;;;;;7.10;3.00;;;;;;;9.83;91.40;98522.81;5092834;28;20070;-88
2023/03/10 04:40:12;;;;;;;5.85;2.88;;;;;;;9.82;91.38;98521.13;5092911;28;20081;-89
2023/03/10 04:42:38;;;;;;;9.43;3.38;;;;;;;9.74;91.06;98520.84;5074086;28;20566;-88
2023/03/10 04:45:03;;;;;;;6.60;3.80;;;;;;;9.74;91.93;98507.66;5092713;28;20058;-89
2023/03/10 04:47:29;;;;;;;10.52;3.30;;;;;;;9.59;91.80;98499.94;5074686;28;20028;-89
2023/03/10 04:49:54;;;;;;;12.40;3.75;;;;;;;9.68;91.84;98507.16;5070831;28;20499;-89
2023/03/10 04:52:19;;;;;;;12.23;4.00;;;;;;;9.65;91.09;98509.19;5074108;28;20027;-88
2023/03/10 04:54:44;;;;;;;12.98;4.72;;;;;;;9.55;91.84;98510.81;5074274;28;20503;-89
2023/03/10 04:57:10;;;;;;;11.50;3.70;;;;;;;9.60;91.23;98514.78;5074453;28;20032;-89
2023/03/10 04:59:35;;;;;;;9.10;3.20;;;;;;;9.53;90.87;98503.03;5092086;28;20038;-88
2023/03/10 05:02:01;;;;;;;8.65;3.50;;;;;;;9.53;91.22;98507.47;5084779;28;20519;-89
2023/03/10 05:04:26;;;;;;;12.20;3.47;;;;;;;9.50;91.18;98502.41;5086024;28;20020;-89
2023/03/10 05:06:52;;;;;;;14.05;3.38;;;;;;;9.49;90.78;98500.72;5074223;28;20032;-88
2023/03/10 05:09:17;;;;;;;9.52;3.40;;;;;;;9.46;91.70;98496.50;5061878;28;20476;-88
2023/03/10 05:11:43;;;;;;;13.90;3.33;;;;;;;9.60;90.82;98501.59;5091949;28;20543;-88
2023/03/10 05:14:10;;;;;;;8.10;3.47;;;;;;;9.53;90.82;98494.28;5092093;28;20406;-88
2023/03/10 05:16:35;;;;;;;10.50;3.92;;;;;;;9.50;90.77;98495.31;5073466;28;20024;-88
2023/03/10 05:19:01;;;;;;;10.52;3.22;;;;;;;9.56;90.80;98496.66;5091562;28;20024;-89
2023/03/10 05:21:27;;;;;;;14.63;3.83;;;;;;;9.53;90.72;98495.13;5073486;28;20490;-88
2023/03/10 05:23:52;;;;;;;8.05;2.80;;;;;;;9.50;90.94;98499.75;5091658;28;20365;-89
2023/03/10 05:26:18;;;;;;;13.32;3.78;;;;;;;9.48;90.83;98499.03;5073961;28;20080;-88
2023/03/10 05:28:43;;;;;;;11.73;3.25;;;;;;;9.43;90.80;98483.56;5073398;28;20110;-88
2023/03/10 05:31:14;;;;;;;10.50;3.22;;;;;;;9.50;90.70;98497.13;5091699;28;20020;-89
2023/03/10 05:33:40;;;;;;;15.68;3.85;;;;;;;9.50;91.20;98500.59;5091057;28;20032;-89
2023/03/10 05:36:11;;;;;;;14.07;3.15;;;;;;;9.53;91.12;98500.38;5092089;28;20430;-89
2023/03/10 05:38:37;;;;;;;8.95;2.60;;;;;;;9.54;90.85;98507.34;5087807;28;20078;-89
2023/03/10 05:41:06;;;;;;;15.40;3.15;;;;;;;9.48;90.63;98502.53;5091732;28;20028;-89
2023/03/10 05:43:31;;;;;;;11.02;2.95;;;;;;;9.44;91.22;98504.53;5091227;28;20031;-89
2023/03/10 05:45:58;;;;;;;6.57;2.72;;;;;;;9.52;91.08;98509.25;5091728;28;20433;-89
2023/03/10 05:48:25;;;;;;;14.70;3.20;;;;;;;9.48;90.79;98502.53;5072088;28;20533;-89
2023/03/10 05:51:01;;;;;;;13.70;3.30;;;;;;;9.51;90.45;98509.34;5091601;28;20035;-89
2023/03/10 05:53:28;;;;;;;12.05;3.85;;;;;;;9.51;91.09;98509.34;5072964;28;20046;-89
2023/03/10 05:55:54;;;;;;;10.85;3.13;;;;;;;9.58;90.73;98515.88;5069814;28;20106;-90
2023/03/10 05:58:20;;;;;;;6.68;3.38;;;;;;;9.60;91.24;98512.16;5069612;28;20039;-90
2023/03/10 06:00:45;;;;;;;9.18;3.58;;;;;;;9.61;91.43;98505.94;5071027;28;20024;-90
2023/03/10 06:03:11;;;;;;;12.00;2.95;;;;;;;9.60;91.46;98506.03;5057264;28;20078;-89
2023/03/10 06:05:36;;;;;;;12.18;3.67;;;;;;;9.61;91.71;98505.13;5071144;28;20028;-89
2023/03/10 06:08:01;;;;;;;10.43;3.28;;;;;;;9.57;91.50;98506.28;5069837;28;20396;-89
2023/03/10 06:10:27;;;;;;;11.35;3.25;;;;;;;9.55;92.30;98509.00;5070809;28;20111;-89
2023/03/10 06:12:54;;;;;;;12.07;4.15;;;;;;;9.59;91.78;98501.72;5070461;28;20109;-89
2023/03/10 06:15:19;;;;;;;9.10;3.20;;;;;;;9.59;91.85;98502.56;5069847;28;20421;-89
2023/03/10 06:17:44;;;;;;;12.82;3.50;;;;;;;9.62;91.68;98517.34;5069510;28;20135;-89
2023/03/10 06:20:10;;;;;;;12.05;3.60;;;;;;;9.62;91.67;98510.25;5070492;28;20032;-89
2023/03/10 06:22:35;;;;;;;12.55;3.63;;;;;;;9.62;91.50;98512.91;5070310;28;20163;-89
2023/03/10 06:25:01;;;;;;;9.88;4.03;;;;;;;9.66;91.66;98524.91;5071007;28;20024;-89
2023/03/10 06:27:26;;;;;;;11.55;3.70;;;;;;;9.69;91.21;98514.13;5069712;28;20480;-89
2023/03/10 06:29:51;;;;;;;14.85;3.20;;;;;;;9.74;91.11;98524.34;5070625;28;20024;-89
2023/03/10 06:32:17;;;;;;;14.70;5.03;;;;;;;9.75;90.99;98523.41;5070462;28;20024;-90
2023/03/10 06:34:42;;;;;;;7.03;3.25;;;;;;;9.75;91.12;98514.66;5070933;28;20020;-89
2023/03/10 06:37:07;;;;;;;13.07;3.17;;;;;;;9.77;91.19;98528.56;5070808;28;20484;-90
2023/03/10 06:39:32;;;;;;;14.23;3.45;;;;;;;9.76;91.09;98529.53;5070532;28;20025;-89
2023/03/10 06:41:59;;;;;;;7.40;3.50;;;;;;;9.74;91.19;98523.50;5070243;28;20443;-89
2023/03/10 06:44:25;;;;;;;11.50;3.33;;;;;;;9.79;90.98;98532.78;5070698;28;20477;-89
2023/03/10 06:46:50;;;;;;;12.38;4.43;;;;;;;9.75;91.10;98531.31;5072695;28;20020;-89
2023/03/10 06:49:15;;;;;;;17.42;3.78;;;;;;;9.71;91.45;98525.41;5066060;28;20033;-90
2023/03/10 06:51:41;;;;;;;12.30;3.50;;;;;;;9.78;90.91;98538.16;5069347;28;20480;-90
2023/03/10 06:54:06;;;;;;;11.05;3.65;;;;;;;9.75;91.17;98533.97;5072747;28;20020;-89
2023/03/10 06:56:31;;;;;;;15.65;4.85;;;;;;;9.78;91.06;98530.22;5072718;28;20165;-89
2023/03/10 06:58:58;;;;;;;12.50;3.63;;;;;;;9.71;91.54;98525.41;5073736;28;20024;-89
2023/03/10 07:01:31;;;;;;;13.02;3.42;;;;;;;9.75;91.65;98539.22;5072542;28;20032;-89
2023/03/10 07:03:59;;;;;;;13.60;3.78;;;;;;;9.71;91.24;98535.13;5073676;28;20075;-89
2023/03/10 07:06:25;;;;;;;9.75;3.58;;;;;;;9.68;91.43;98538.81;5073997;28;20548;-89
2023/03/10 07:08:52;;;;;;;14.82;3.78;;;;;;;9.74;91.27;98536.69;5068864;28;20025;-88
2023/03/10 07:11:17;;;;;;;12.48;4.28;;;;;;;9.78;90.82;98544.25;5071029;28;20033;-89
2023/03/10 07:13:43;;;;;;;12.98;3.72;;;;;;;9.80;91.13;98538.91;5073697;28;20449;-88
2023/03/10 07:16:08;;;;;;;13.88;4.07;;;;;;;9.83;91.02;98544.75;5072371;28;21106;-88
2023/03/10 07:18:33;;;;;;;8.85;3.17;;;;;;;9.91;91.22;98544.22;5071487;28;20045;-89
2023/03/10 07:20:59;;;;;;;9.45;3.63;;;;;;;9.97;90.66;98538.47;5070691;28;20033;-89
2023/03/10 07:23:24;;;;;;;10.35;3.60;;;;;;;10.04;91.38;98537.06;5073426;28;20073;-89
2023/03/10 07:25:52;;;;;;;11.30;3.45;;;;;;;10.17;90.97;98548.41;5072119;28;20024;-89
2023/03/10 07:28:18;;;;;;;10.98;3.58;;;;;;;10.17;91.13;98540.47;5073726;28;20463;-90
2023/03/10 07:30:43;;;;;;;15.63;4.20;;;;;;;10.26;91.12;98544.25;5069821;28;20171;-89
2023/03/10 07:33:09;;;;;;;10.70;3.38;;;;;;;10.35;90.40;98548.84;5073203;28;20035;-89
2023/03/10 07:35:35;;;;;;;13.73;3.58;;;;;;;10.50;90.79;98556.56;5073403;28;20059;-89
2023/03/10 07:38:00;;;;;;;8.98;3.15;;;;;;;10.58;89.71;98547.06;5072258;28;20317;-89
2023/03/10 07:40:26;;;;;;;12.55;2.95;;;;;;;10.69;89.22;98556.81;5072944;28;20035;-89
2023/03/10 07:42:53;;;;;;;8.77;2.40;;;;;;;10.77;88.21;98564.13;5071521;28;20426;-89
2023/03/10 07:45:18;;;;;;;9.77;3.45;;;;;;;10.88;87.67;98565.00;5073079;28;20178;-89
2023/03/10 07:47:48;;;;;;;7.20;2.60;;;;;;;11.06;87.23;98552.16;5073290;28;20127;-89
2023/03/10 07:50:14;;;;;;;6.18;1.83;;;;;;;11.24;86.47;98561.28;5071176;28;20060;-89
2023/03/10 07:52:39;;;;;;;9.75;2.30;;;;;;;11.36;85.97;98555.97;5071973;28;20103;-87
2023/03/10 07:55:05;;;;;;;11.23;2.15;;;;;;;11.52;85.44;98561.72;5074985;28;20654;-89
2023/03/10 07:57:30;;;;;;;6.82;2.05;;;;;;;11.48;84.21;98555.00;5077421;28;20036;-89
2023/03/10 07:59:55;;;;;;;8.48;2.00;;;;;;;11.39;84.07;98558.38;5065909;28;20159;-88
2023/03/10 08:02:21;;;;;;;8.52;2.70;;;;;;;11.32;83.40;98554.53;5073310;28;20043;-88
2023/03/10 08:04:46;;;;;;;7.53;1.75;;;;;;;11.46;83.60;98570.13;5073445;28;20032;-88
2023/03/10 08:07:12;;;;;;;8.18;1.60;;;;;;;11.41;83.19;98557.28;5075083;28;20502;-88
2023/03/10 08:09:37;;;;;;;8.55;1.77;;;;;;;11.41;82.72;98569.66;5074300;28;20032;-88
2023/03/10 08:12:03;;;;;;;8.25;1.70;;;;;;;11.47;83.05;98572.66;5073577;28;20480;-88
2023/03/10 08:14:29;;;;;;;8.85;1.80;;;;;;;11.45;83.07;98563.16;5073737;28;20047;-88
2023/03/10 08:16:55;;;;;;;8.85;1.65;;;;;;;11.47;82.99;98558.56;5073380;28;20021;-88
2023/03/10 08:19:22;;;;;;;6.78;1.70;;;;;;;11.58;82.59;98566.50;5068331;28;20078;-88
2023/03/10 08:21:47;;;;;;;6.20;2.13;;;;;;;11.71;83.13;98567.19;5071570;28;20032;-88
2023/03/10 08:24:13;;;;;;;6.65;2.45;;;;;;;11.73;81.88;98575.00;5068447;28;20476;-87
2023/03/10 08:26:38;;;;;;;6.00;1.85;;;;;;;11.67;80.73;98565.75;5063751;28;20056;-88
2023/03/10 08:29:04;;;;;;;10.13;3.33;;;;;;;11.86;80.52;98564.31;5072677;28;20408;-88
2023/03/10 08:31:29;;;;;;;8.48;2.72;;;;;;;12.07;79.09;98564.31;5072710;28;20388;-88
2023/03/10 08:33:56;;;;;;;8.02;1.40;;;;;;;12.15;79.42;98562.72;5072055;28;20184;-89
2023/03/10 08:36:24;;;;;;;9.50;2.45;;;;;;;12.10;79.89;98567.56;5071292;28;20056;-88
2023/03/10 08:38:52;;;;;;;10.15;2.42;;;;;;;12.30;80.73;98570.38;5070424;28;20476;-89
2023/03/10 08:41:23;;;;;;;6.43;1.80;;;;;;;12.29;79.02;98574.00;5070877;28;20032;-88
2023/03/10 08:43:50;;;;;;;7.72;2.05;;;;;;;12.20;80.13;98568.47;5072346;28;20380;-88
2023/03/10 08:46:17;;;;;;;10.23;2.03;;;;;;;12.08;79.85;98568.69;5073216;28;20024;-89
2023/03/10 08:48:43;;;;;;;10.23;2.28;;;;;;;12.05;79.34;98566.28;5072406;28;20028;-88
2023/03/10 08:51:09;;;;;;;9.90;2.17;;;;;;;12.03;80.22;98569.06;5072390;28;20024;-88
2023/03/10 08:53:36;;;;;;;10.05;2.00;;;;;;;12.04;80.15;98567.25;5071861;28;20039;-88
2023/03/10 08:56:03;;;;;;;8.57;2.33;;;;;;;11.96;79.07;98566.06;5070827;28;20413;-88
2023/03/10 08:58:28;;;;;;;8.32;2.03;;;;;;;12.17;79.27;98574.06;5070667;28;20040;-88
2023/03/10 09:00:54;;;;;;;5.60;1.60;;;;;;;12.24;77.88;98567.25;5070350;28;20040;-88
2023/03/10 09:03:19;;;;;;;8.43;1.48;;;;;;;12.65;78.41;98560.28;5070316;28;20017;-88
2023/03/10 09:05:45;;;;;;;7.57;1.88;;;;;;;12.93;76.67;98572.03;5071808;28;20032;-88
2023/03/10 09:08:10;;;;;;;7.70;2.10;;;;;;;12.90;76.53;98569.63;5070979;28;20562;-88
2023/03/10 09:10:37;;;;;;;10.70;2.13;;;;;;;12.75;76.94;98566.47;5070193;28;20029;-88
2023/03/10 09:13:03;;;;;;;6.68;1.60;;;;;;;12.58;77.91;98567.06;5073911;28;20388;-88
2023/03/10 09:15:29;;;;;;;11.13;1.90;;;;;;;12.41;77.64;98552.63;5070385;28;20036;-89
2023/03/10 09:17:54;;;;;;;6.45;1.55;;;;;;;12.35;76.08;98571.66;5070594;28;20332;-88
2023/03/10 09:20:24;;;;;;;6.38;1.67;;;;;;;12.21;75.61;98554.25;5070927;28;20131;-89
2023/03/10 09:22:54;;;;;;;8.02;1.73;;;;;;;12.21;75.35;98553.44;5072661;28;20047;-89
2023/03/10 09:25:19;;;;;;;6.43;1.75;;;;;;;12.22;75.80;98552.47;5070672;28;20039;-88
2023/03/10 09:27:45;;;;;;;8.65;2.00;;;;;;;12.23;74.46;98548.84;5072304;28;20031;-89
2023/03/10 09:30:11;;;;;;;5.82;1.80;;;;;;;12.32;75.35;98549.91;5071397;28;20391;-88
2023/03/10 09:32:37;;;;;;;7.38;2.05;;;;;;;12.30;75.26;98555.31;5071166;28;20020;-88
2023/03/10 09:35:02;;;;;;;5.40;1.50;;;;;;;12.33;75.96;98548.94;5070681;28;20098;-89
2023/03/10 09:37:28;;;;;;;6.28;1.70;;;;;;;12.32;75.14;98557.84;5071988;28;20039;-89
2023/03/10 09:39:53;;;;;;;6.97;2.10;;;;;;;12.31;76.17;98549.06;5064056;28;20024;-89
2023/03/10 09:42:38;;;;;;;11.02;1.90;;;;;;;12.30;76.18;98557.97;5071109;28;20028;-89
2023/03/10 09:45:22;;;;;;;8.60;1.92;;;;;;;12.24;76.57;98548.72;5071896;28;20024;-89
2023/03/10 09:48:00;;;;;;;8.50;2.20;;;;;;;12.21;76.30;98559.56;5071989;28;20032;-89
2023/03/10 09:50:42;;;;;;;7.88;1.60;;;;;;;12.13;74.93;98562.03;5071714;28;20032;-89
2023/03/10 09:53:29;;;;;;;7.45;1.90;;;;;;;12.02;74.36;98566.53;5068850;28;20494;-89
2023/03/10 09:55:54;;;;;;;7.10;1.60;;;;;;;11.94;75.48;98573.31;5084133;28;20048;-89
2023/03/10 09:58:42;;;;;;;6.82;1.83;;;;;;;11.87;75.74;98561.50;5090527;28;20407;-89
2023/03/10 10:01:15;;;;;;;9.32;1.80;;;;;;;11.80;77.54;98570.91;5085455;28;20031;-89
2023/03/10 10:03:46;;;;;;;6.93;2.10;;;;;;;11.48;79.53;98574.34;5078062;28;20023;-90
2023/03/10 10:06:33;;;;;;;6.97;1.50;;;;;;;11.19;83.37;98581.97;5072410;28;20028;-89
2023/03/10 10:09:28;;;;;;;9.40;1.98;;;;;;;10.91;84.08;98566.53;5090478;28;20103;-87
2023/03/10 10:11:54;;;;;;;6.63;2.20;;;;;;;10.85;85.12;98585.53;5078518;28;20100;-87
2023/03/10 10:14:27;;;;;;;10.32;2.05;;;;;;;10.98;84.80;98580.97;5090604;28;20019;-87
2023/03/10 10:17:07;;;;;;;5.22;1.77;;;;;;;11.07;84.61;98580.28;5090129;28;20023;-87
2023/03/10 10:19:35;;;;;;;5.07;1.80;;;;;;;11.22;83.82;98596.72;5089621;28;20024;-87
2023/03/10 10:22:17;;;;;;;8.43;2.13;;;;;;;11.27;83.67;98585.78;5071647;28;20036;-87
2023/03/10 10:24:59;;;;;;;7.43;2.25;;;;;;;11.20;83.06;98581.00;5071497;28;20068;-87
2023/03/10 10:27:25;;;;;;;6.22;2.50;;;;;;;11.16;81.95;98591.94;5090154;28;20040;-88
2023/03/10 10:29:50;;;;;;;5.30;2.00;;;;;;;11.10;82.32;98590.63;5083329;28;20369;-88
2023/03/10 10:32:16;;;;;;;7.93;2.35;;;;;;;11.04;83.60;98600.81;5067727;28;20347;-88
2023/03/10 10:34:44;;;;;;;10.48;2.78;;;;;;;10.75;84.31;98603.91;5089971;28;20511;-88
2023/03/10 10:37:28;;;;;;;6.97;2.85;;;;;;;10.82;84.57;98598.97;5089941;28;20082;-88
2023/03/10 10:39:56;;;;;;;11.77;2.53;;;;;;;10.81;85.79;98600.78;5065182;28;20020;-88
2023/03/10 10:42:23;;;;;;;8.30;2.40;;;;;;;10.77;84.66;98602.00;5089036;28;20055;-88
2023/03/10 10:44:55;;;;;;;7.50;2.13;;;;;;;10.89;85.27;98594.91;5089269;28;20024;-88
2023/03/10 10:47:32;;;;;;;6.25;2.20;;;;;;;10.96;85.10;98594.34;5089729;28;20027;-89
2023/03/10 10:50:19;;;;;;;9.52;2.15;;;;;;;11.07;84.69;98587.38;5066499;28;20028;-88
2023/03/10 10:52:49;;;;;;;5.90;2.15;;;;;;;11.01;84.63;98567.53;5071536;28;20488;-89
2023/03/10 10:55:34;;;;;;;6.80;2.47;;;;;;;11.04;85.33;98575.22;5089220;28;20036;-89
2023/03/10 10:58:04;;;;;;;5.75;1.80;;;;;;;11.09;85.37;98585.44;5071540;28;20024;-89
2023/03/10 11:00:35;;;;;;;8.07;2.50;;;;;;;11.07;85.37;98572.34;5069113;28;20024;-89
2023/03/10 11:03:17;;;;;;;6.78;2.33;;;;;;;11.10;85.89;98576.56;5085369;28;20502;-89
2023/03/10 11:05:42;;;;;;;7.70;2.60;;;;;;;11.06;86.32;98562.72;5089808;28;20028;-88
2023/03/10 11:08:26;;;;;;;7.03;1.77;;;;;;;11.16;86.68;98576.06;5089677;28;20028;-89
2023/03/10 11:11:07;;;;;;;8.13;2.25;;;;;;;11.09;86.78;98570.41;5089435;28;20024;-89
2023/03/10 11:14:00;;;;;;;6.97;2.10;;;;;;;11.28;86.91;98574.25;5089448;28;20406;-88
2023/03/10 11:16:51;;;;;;;6.93;1.90;;;;;;;11.26;85.82;98571.72;5089568;28;20259;-89
2023/03/10 11:19:49;;;;;;;8.07;1.50;;;;;;;11.22;86.23;98565.00;5089410;28;20027;-88
2023/03/10 11:22:45;;;;;;;5.88;1.42;;;;;;;11.19;86.66;98559.94;5081842;28;20499;-88
2023/03/10 11:25:30;;;;;;;7.88;1.90;;;;;;;11.14;86.08;98547.06;5071358;28;20471;-89
2023/03/10 11:28:14;;;;;;;7.05;1.75;;;;;;;11.14;86.80;98552.38;5077250;28;20394;-89
2023/03/10 11:31:01;;;;;;;5.68;1.58;;;;;;;11.10;86.51;98542.19;5062974;28;20070;-89
2023/03/10 11:33:34;;;;;;;4.72;1.90;;;;;;;11.03;86.35;98552.38;5074697;28;20023;-89
2023/03/10 11:36:17;;;;;;;;;;;;;;;11.07;85.76;98545.91;5080737;28;20107;-89
2023/03/10 11:38:47;;;;;;;4.93;1.80;;;;;;;11.05;86.98;98545.19;5074916;28;20367;-89